Time;durP1;ratioP1;P1;durP2;ratioP2;P2;SDS_P1;SDS_P2;PMS_P1;PMS_P2;Temp;Humidity;BMP_temperature;BMP_pressure;BME280_temperature;BME280_humidity;BME280_pressure;Samples;Min_cycle;Max_cycle;Signal;HPM_P1;HPM_P2
2022/01/13 00:03:58;;;;;;;9.33;4.87;;;;;;;;;;8334736;28;20847;-64
2022/01/13 00:07:58;;;;;;;7.18;5.22;;;;;;;;;;8338894;28;20320;-64
2022/01/13 00:11:58;;;;;;;10.48;6.07;;;;;;;;;;8336712;28;20127;-64
2022/01/13 00:16:24;;;;;;;11.05;5.57;;;;;;;;;;8337284;28;20040;-65
2022/01/13 00:24:25;;;;;;;7.22;5.38;;;;;;;;;;8335325;28;20029;-64
2022/01/13 00:28:25;;;;;;;10.85;5.50;;;;;;;;;;8336982;28;20287;-64
2022/01/13 00:32:29;;;;;;;10.00;6.03;;;;;;;;;;8336413;28;20037;-64
2022/01/13 00:36:31;;;;;;;10.43;5.72;;;;;;;;;;8337386;28;20032;-64
2022/01/13 00:40:31;;;;;;;8.73;5.50;;;;;;;;;;8336284;28;20568;-64
2022/01/13 00:44:36;;;;;;;10.43;6.07;;;;;;;;;;8336456;28;20097;-64
2022/01/13 00:48:36;;;;;;;8.57;5.68;;;;;;;;;;8335395;28;20036;-64
2022/01/13 00:52:36;;;;;;;10.07;7.05;;;;;;;;;;8338233;28;20736;-64
2022/01/13 00:56:37;;;;;;;9.17;5.93;;;;;;;;;;8336094;28;20052;-64
2022/01/13 01:00:37;;;;;;;9.57;6.15;;;;;;;;;;8334428;28;20453;-64
2022/01/13 01:04:37;;;;;;;9.98;5.88;;;;;;;;;;8334931;28;20048;-64
2022/01/13 01:08:38;;;;;;;9.90;5.82;;;;;;;;;;8336004;28;20548;-64
2022/01/13 01:12:38;;;;;;;8.70;5.70;;;;;;;;;;8336216;28;20021;-65
2022/01/13 01:16:39;;;;;;;8.60;5.53;;;;;;;;;;8340606;28;20384;-64
2022/01/13 01:20:49;;;;;;;10.88;6.30;;;;;;;;;;8341205;28;20028;-64
2022/01/13 01:29:03;;;;;;;8.60;5.78;;;;;;;;;;8343324;28;20204;-64
2022/01/13 01:33:03;;;;;;;8.82;5.50;;;;;;;;;;8339341;28;20127;-65
2022/01/13 01:37:12;;;;;;;9.90;6.25;;;;;;;;;;8340645;28;20227;-64
2022/01/13 01:41:12;;;;;;;10.50;6.95;;;;;;;;;;8341522;28;20520;-64
2022/01/13 01:45:14;;;;;;;8.18;5.75;;;;;;;;;;8339519;28;20033;-65
2022/01/13 01:49:18;;;;;;;10.15;6.25;;;;;;;;;;8341208;28;20063;-64
2022/01/13 01:53:19;;;;;;;9.77;6.65;;;;;;;;;;8342196;28;20352;-64
2022/01/13 01:57:19;;;;;;;10.85;6.20;;;;;;;;;;8339005;28;20040;-64
2022/01/13 02:01:20;;;;;;;10.40;6.30;;;;;;;;;;8339679;28;20085;-64
2022/01/13 02:05:20;;;;;;;12.50;6.97;;;;;;;;;;8339596;28;20039;-65
2022/01/13 02:09:22;;;;;;;10.98;6.57;;;;;;;;;;8340420;28;20748;-64
2022/01/13 02:13:24;;;;;;;8.88;5.90;;;;;;;;;;8339205;28;20028;-64
2022/01/13 02:17:27;;;;;;;9.68;6.45;;;;;;;;;;8336934;28;20818;-64
2022/01/13 02:21:27;;;;;;;10.13;6.50;;;;;;;;;;8339258;28;20024;-64
2022/01/13 02:25:27;;;;;;;10.93;7.33;;;;;;;;;;8338961;28;20025;-64
2022/01/13 02:29:28;;;;;;;14.13;8.63;;;;;;;;;;8340636;28;20286;-64
2022/01/13 02:33:28;;;;;;;12.25;7.80;;;;;;;;;;8338309;28;20028;-64
2022/01/13 02:37:28;;;;;;;19.77;9.18;;;;;;;;;;8338972;28;20029;-64
2022/01/13 02:41:28;;;;;;;12.02;7.93;;;;;;;;;;8340728;28;20032;-64
2022/01/13 02:45:34;;;;;;;11.30;6.37;;;;;;;;;;8338889;28;20329;-64
2022/01/13 02:49:34;;;;;;;11.10;7.57;;;;;;;;;;8339008;28;20568;-64
2022/01/13 02:53:34;;;;;;;14.98;7.88;;;;;;;;;;8339187;28;20414;-64
2022/01/13 02:57:36;;;;;;;16.33;9.93;;;;;;;;;;8340510;28;22027;-64
2022/01/13 03:01:36;;;;;;;17.65;10.27;;;;;;;;;;8336953;28;20426;-64
2022/01/13 03:05:38;;;;;;;20.42;9.10;;;;;;;;;;8338101;28;20041;-64
2022/01/13 03:09:39;;;;;;;15.27;9.07;;;;;;;;;;8337505;28;20028;-64
2022/01/13 03:13:39;;;;;;;22.73;10.50;;;;;;;;;;8338779;28;20051;-64
2022/01/13 03:17:40;;;;;;;15.05;9.35;;;;;;;;;;8337689;28;20399;-64
2022/01/13 03:21:40;;;;;;;13.25;7.47;;;;;;;;;;8335915;28;20105;-64
2022/01/13 03:25:43;;;;;;;15.23;8.65;;;;;;;;;;8338996;28;20138;-64
2022/01/13 03:29:43;;;;;;;13.75;8.48;;;;;;;;;;8337122;28;20136;-63
2022/01/13 03:33:43;;;;;;;12.40;7.93;;;;;;;;;;8336786;28;20573;-64
2022/01/13 03:37:43;;;;;;;11.38;6.97;;;;;;;;;;8337267;28;20112;-64
2022/01/13 03:41:44;;;;;;;16.70;9.55;;;;;;;;;;8337476;28;20548;-64
2022/01/13 03:45:44;;;;;;;18.90;10.37;;;;;;;;;;8335303;28;20111;-64
2022/01/13 03:49:45;;;;;;;13.32;8.50;;;;;;;;;;8338354;28;20624;-64
2022/01/13 03:54:10;;;;;;;13.48;8.00;;;;;;;;;;8338638;28;20135;-65
2022/01/13 03:58:49;;;;;;;21.63;12.40;;;;;;;;;;8335747;28;20028;-65
2022/01/13 04:02:50;;;;;;;17.60;10.25;;;;;;;;;;8232437;28;20063;-64
2022/01/13 04:07:03;;;;;;;19.58;10.80;;;;;;;;;;8279415;28;20110;-64
2022/01/13 04:11:03;;;;;;;19.45;10.75;;;;;;;;;;8335747;28;20024;-64
2022/01/13 04:15:10;;;;;;;20.08;10.35;;;;;;;;;;8335095;28;20024;-65
2022/01/13 04:19:10;;;;;;;19.45;10.85;;;;;;;;;;8337876;28;20020;-64
2022/01/13 04:23:12;;;;;;;17.52;10.00;;;;;;;;;;8337961;28;20408;-64
2022/01/13 04:27:28;;;;;;;21.83;12.88;;;;;;;;;;8336841;28;20036;-64
2022/01/13 04:31:28;;;;;;;17.05;9.05;;;;;;;;;;8337237;28;20036;-64
2022/01/13 04:35:29;;;;;;;27.98;10.95;;;;;;;;;;8334639;28;20033;-64
2022/01/13 04:39:29;;;;;;;18.40;9.90;;;;;;;;;;8334880;28;20032;-64
2022/01/13 04:43:30;;;;;;;18.40;10.30;;;;;;;;;;8337523;28;20145;-64
2022/01/13 04:47:30;;;;;;;21.23;10.13;;;;;;;;;;8336215;28;20056;-64
2022/01/13 04:51:31;;;;;;;25.00;12.05;;;;;;;;;;8343330;28;20324;-64
2022/01/13 04:55:34;;;;;;;24.73;10.85;;;;;;;;;;8344171;28;20029;-65
2022/01/13 04:59:34;;;;;;;25.83;11.05;;;;;;;;;;8341322;28;21337;-65
2022/01/13 05:03:34;;;;;;;34.13;11.48;;;;;;;;;;8343303;28;21951;-64
2022/01/13 05:07:35;;;;;;;137.27;12.20;;;;;;;;;;8343059;28;20025;-64
2022/01/13 05:11:35;;;;;;;51.15;10.52;;;;;;;;;;8343503;28;20107;-64
2022/01/13 05:15:37;;;;;;;132.23;11.83;;;;;;;;;;8341109;28;20135;-64
2022/01/13 05:19:45;;;;;;;94.90;10.02;;;;;;;;;;8342223;28;20270;-64
2022/01/13 05:23:45;;;;;;;55.75;8.43;;;;;;;;;;8342730;28;20064;-65
2022/01/13 05:27:46;;;;;;;54.85;8.85;;;;;;;;;;8341516;28;20024;-64
2022/01/13 05:31:47;;;;;;;108.60;9.63;;;;;;;;;;8341505;28;20032;-64
2022/01/13 05:35:47;;;;;;;69.32;7.57;;;;;;;;;;8340094;28;20029;-64
2022/01/13 05:39:47;;;;;;;179.60;11.10;;;;;;;;;;8342832;28;20500;-64
2022/01/13 05:43:47;;;;;;;19.38;7.68;;;;;;;;;;8340261;28;20497;-64
2022/01/13 05:47:50;;;;;;;64.38;8.07;;;;;;;;;;8338265;28;20032;-64
2022/01/13 05:51:51;;;;;;;51.13;7.53;;;;;;;;;;8341047;28;20031;-64
2022/01/13 05:55:51;;;;;;;129.07;9.32;;;;;;;;;;8355429;28;20043;-64
2022/01/13 05:59:51;;;;;;;37.63;6.83;;;;;;;;;;8339439;28;20100;-64
2022/01/13 06:03:51;;;;;;;23.25;6.47;;;;;;;;;;8339470;28;20283;-64
2022/01/13 06:07:52;;;;;;;15.65;5.65;;;;;;;;;;8337521;28;20040;-65
2022/01/13 06:11:57;;;;;;;184.77;10.43;;;;;;;;;;8341377;28;20033;-64
2022/01/13 06:15:57;;;;;;;116.35;8.57;;;;;;;;;;8337898;28;20429;-65
2022/01/13 06:19:59;;;;;;;76.72;8.02;;;;;;;;;;8339266;28;20064;-64
2022/01/13 06:23:59;;;;;;;77.88;6.97;;;;;;;;;;8339399;28;20028;-65
2022/01/13 06:27:59;;;;;;;24.27;6.53;;;;;;;;;;8340395;28;20527;-64
2022/01/13 06:32:00;;;;;;;267.88;10.98;;;;;;;;;;8337964;28;20862;-64
2022/01/13 06:36:01;;;;;;;75.35;6.88;;;;;;;;;;8338120;28;20078;-64
2022/01/13 06:40:03;;;;;;;16.95;5.80;;;;;;;;;;8338288;28;20031;-64
2022/01/13 06:44:03;;;;;;;55.28;7.60;;;;;;;;;;8337977;28;20036;-65
2022/01/13 06:48:03;;;;;;;122.03;31.52;;;;;;;;;;8339614;28;20035;-65
2022/01/13 06:52:04;;;;;;;136.60;31.52;;;;;;;;;;8338700;28;20021;-65
2022/01/13 06:56:04;;;;;;;123.38;33.17;;;;;;;;;;8337447;28;20078;-65
2022/01/13 07:00:05;;;;;;;175.40;43.58;;;;;;;;;;8336879;28;20029;-65
2022/01/13 07:04:05;;;;;;;161.95;45.15;;;;;;;;;;8339214;28;20607;-65
2022/01/13 07:08:08;;;;;;;251.85;51.75;;;;;;;;;;8340212;28;20495;-65
2022/01/13 07:12:09;;;;;;;281.95;54.67;;;;;;;;;;8338050;28;20040;-65
2022/01/13 07:16:09;;;;;;;347.80;59.38;;;;;;;;;;8336430;28;20143;-65
2022/01/13 07:20:10;;;;;;;720.43;68.17;;;;;;;;;;8336932;28;20055;-65
2022/01/13 07:24:10;;;;;;;510.92;58.85;;;;;;;;;;8336652;28;20788;-65
2022/01/13 07:28:10;;;;;;;184.67;47.33;;;;;;;;;;8337630;28;20599;-65
2022/01/13 07:32:11;;;;;;;140.40;40.13;;;;;;;;;;8335816;28;20410;-65
2022/01/13 07:36:11;;;;;;;163.38;30.83;;;;;;;;;;8336780;28;20028;-65
2022/01/13 07:40:15;;;;;;;392.97;26.70;;;;;;;;;;8338242;28;20071;-65
2022/01/13 07:44:17;;;;;;;278.63;20.40;;;;;;;;;;8337571;28;20402;-65
2022/01/13 07:48:18;;;;;;;270.27;19.63;;;;;;;;;;8335570;28;20044;-65
2022/01/13 07:52:18;;;;;;;102.93;15.20;;;;;;;;;;8337082;28;20025;-65
2022/01/13 07:56:18;;;;;;;350.45;27.38;;;;;;;;;;8338198;28;20040;-65
2022/01/13 08:00:18;;;;;;;120.68;26.83;;;;;;;;;;8335728;28;20473;-65
2022/01/13 08:04:19;;;;;;;105.95;21.98;;;;;;;;;;8339899;28;20143;-65
2022/01/13 08:08:19;;;;;;;136.15;18.63;;;;;;;;;;8332953;28;20025;-65
2022/01/13 08:12:19;;;;;;;166.63;17.50;;;;;;;;;;8337888;28;20024;-65
2022/01/13 08:16:19;;;;;;;69.47;14.48;;;;;;;;;;8333740;28;20601;-65
2022/01/13 08:20:20;;;;;;;40.90;12.30;;;;;;;;;;8337589;28;20041;-65
2022/01/13 08:24:20;;;;;;;62.25;11.07;;;;;;;;;;8342798;28;20375;-65
2022/01/13 08:28:21;;;;;;;83.80;11.60;;;;;;;;;;8342238;28;20033;-65
2022/01/13 08:32:21;;;;;;;42.45;8.80;;;;;;;;;;8342680;28;20041;-66
2022/01/13 08:36:22;;;;;;;80.05;7.53;;;;;;;;;;8343115;28;20064;-65
2022/01/13 08:40:22;;;;;;;208.35;11.82;;;;;;;;;;8343530;28;20766;-65
2022/01/13 08:44:22;;;;;;;164.23;9.57;;;;;;;;;;8343197;28;20204;-65
2022/01/13 08:48:22;;;;;;;198.93;9.10;;;;;;;;;;8342169;28;20032;-65
2022/01/13 08:52:23;;;;;;;264.20;9.95;;;;;;;;;;8343044;28;20743;-65
2022/01/13 08:56:23;;;;;;;77.78;6.55;;;;;;;;;;8340200;28;20028;-65
2022/01/13 09:00:24;;;;;;;73.03;7.10;;;;;;;;;;8342149;28;20043;-65
2022/01/13 09:04:24;;;;;;;93.28;6.63;;;;;;;;;;8338941;28;20283;-65
2022/01/13 09:08:24;;;;;;;31.13;6.13;;;;;;;;;;8343863;28;20486;-65
2022/01/13 09:12:24;;;;;;;74.95;7.57;;;;;;;;;;8342218;28;20351;-65
2022/01/13 09:16:26;;;;;;;128.33;8.03;;;;;;;;;;8339622;28;20041;-65
2022/01/13 09:20:26;;;;;;;107.57;8.32;;;;;;;;;;8343078;28;20290;-65
2022/01/13 09:24:26;;;;;;;130.77;9.85;;;;;;;;;;8340036;28;20028;-65
2022/01/13 09:28:26;;;;;;;51.05;9.20;;;;;;;;;;8342469;28;20028;-65
2022/01/13 09:32:26;;;;;;;39.40;8.52;;;;;;;;;;8340928;28;20064;-65
2022/01/13 09:36:27;;;;;;;48.05;10.45;;;;;;;;;;8339394;28;20083;-65
2022/01/13 09:40:28;;;;;;;82.65;9.30;;;;;;;;;;8341707;28;20423;-65
2022/01/13 09:44:28;;;;;;;35.22;10.77;;;;;;;;;;8340076;28;20136;-65
2022/01/13 09:48:30;;;;;;;52.53;11.10;;;;;;;;;;8332849;28;20029;-65
2022/01/13 09:52:31;;;;;;;44.30;10.55;;;;;;;;;;8338287;28;20484;-65
2022/01/13 09:56:32;;;;;;;19.85;10.05;;;;;;;;;;8335085;28;20060;-65
2022/01/13 10:00:32;;;;;;;56.33;11.85;;;;;;;;;;8335056;28;20094;-65
2022/01/13 10:04:46;;;;;;;43.20;12.20;;;;;;;;;;8335268;28;20366;-65
2022/01/13 10:08:49;;;;;;;40.35;12.52;;;;;;;;;;8336211;28;20079;-66
2022/01/13 10:13:00;;;;;;;34.47;13.30;;;;;;;;;;8336083;28;20420;-65
2022/01/13 10:17:01;;;;;;;58.78;14.00;;;;;;;;;;8333468;28;20046;-65
2022/01/13 10:21:09;;;;;;;72.97;14.02;;;;;;;;;;8335847;28;20020;-65
2022/01/13 10:25:23;;;;;;;49.63;14.77;;;;;;;;;;8337485;28;20559;-65
2022/01/13 10:29:37;;;;;;;55.00;15.00;;;;;;;;;;8335091;28;20173;-65
2022/01/13 10:33:38;;;;;;;58.08;15.82;;;;;;;;;;8335301;28;20086;-65
2022/01/13 10:37:40;;;;;;;67.20;17.13;;;;;;;;;;8334850;28;20059;-65
2022/01/13 10:42:11;;;;;;;32.92;15.05;;;;;;;;;;8336033;28;20024;-65
2022/01/13 10:46:09;;;;;;;57.15;16.85;;;;;;;;;;8332956;28;20072;-66
2022/01/13 10:50:11;;;;;;;86.65;16.13;;;;;;;;;;8335830;28;20474;-66
2022/01/13 10:54:24;;;;;;;83.55;15.15;;;;;;;;;;8335826;28;20320;-66
2022/01/13 10:58:29;;;;;;;85.65;13.57;;;;;;;;;;8334485;28;20942;-66
2022/01/13 11:02:29;;;;;;;78.00;11.73;;;;;;;;;;8333993;28;20063;-66
2022/01/13 11:06:29;;;;;;;70.63;13.70;;;;;;;;;;8335283;28;20969;-66
2022/01/13 11:10:30;;;;;;;122.43;14.25;;;;;;;;;;8335178;28;20013;-66
2022/01/13 11:14:31;;;;;;;73.53;12.55;;;;;;;;;;8332087;28;20039;-66
2022/01/13 11:18:32;;;;;;;60.97;11.73;;;;;;;;;;8334233;28;20041;-65
2022/01/13 11:22:35;;;;;;;110.88;13.88;;;;;;;;;;8334114;28;20577;-66
2022/01/13 11:26:35;;;;;;;40.25;13.52;;;;;;;;;;8333729;28;20450;-66
2022/01/13 11:30:37;;;;;;;93.32;13.20;;;;;;;;;;8333468;28;20037;-66
2022/01/13 11:34:37;;;;;;;60.70;12.60;;;;;;;;;;8333066;28;20028;-66
2022/01/13 11:38:39;;;;;;;51.97;12.88;;;;;;;;;;8333679;28;20081;-66
2022/01/13 11:42:46;;;;;;;54.80;13.88;;;;;;;;;;8335170;28;20540;-66
2022/01/13 11:46:47;;;;;;;66.95;14.32;;;;;;;;;;8333599;28;20036;-69
2022/01/13 11:50:53;;;;;;;42.10;14.60;;;;;;;;;;8333382;28;20021;-66
2022/01/13 11:54:53;;;;;;;35.03;17.07;;;;;;;;;;8339986;28;20128;-66
2022/01/13 11:58:54;;;;;;;45.33;16.17;;;;;;;;;;8329645;28;20300;-66
2022/01/13 12:02:55;;;;;;;33.90;16.70;;;;;;;;;;8332196;28;20029;-66
2022/01/13 12:06:55;;;;;;;45.33;20.15;;;;;;;;;;8334262;28;20061;-66
2022/01/13 12:10:56;;;;;;;94.82;19.27;;;;;;;;;;8332939;28;20514;-66
2022/01/13 12:15:15;;;;;;;50.47;15.05;;;;;;;;;;8334473;28;20029;-66
2022/01/13 12:19:26;;;;;;;103.50;18.90;;;;;;;;;;8330125;28;20041;-66
2022/01/13 12:23:39;;;;;;;35.00;17.13;;;;;;;;;;8332705;28;20083;-66
2022/01/13 12:27:40;;;;;;;32.53;15.07;;;;;;;;;;8333051;28;20449;-66
2022/01/13 12:31:53;;;;;;;28.03;13.90;;;;;;;;;;8334529;28;20127;-66
2022/01/13 12:35:54;;;;;;;24.17;12.87;;;;;;;;;;8333554;28;20282;-66
2022/01/13 12:40:03;;;;;;;41.30;16.42;;;;;;;;;;8332344;28;20032;-66
2022/01/13 12:44:20;;;;;;;25.90;13.00;;;;;;;;;;8332778;28;20082;-66
2022/01/13 12:48:20;;;;;;;24.25;11.88;;;;;;;;;;8329384;28;20705;-65
2022/01/13 12:52:21;;;;;;;22.17;11.23;;;;;;;;;;8331342;28;20040;-66
2022/01/13 12:56:23;;;;;;;121.85;13.43;;;;;;;;;;8331712;28;20067;-66
2022/01/13 13:00:24;;;;;;;51.00;12.35;;;;;;;;;;8330820;28;20025;-66
2022/01/13 13:04:24;;;;;;;60.85;13.68;;;;;;;;;;8330231;28;20024;-66
2022/01/13 13:08:26;;;;;;;310.13;17.52;;;;;;;;;;8333956;28;20128;-66
2022/01/13 13:12:27;;;;;;;134.05;16.00;;;;;;;;;;8335817;28;20669;-66
2022/01/13 13:16:27;;;;;;;75.15;14.43;;;;;;;;;;8337565;28;20041;-67
2022/01/13 13:20:29;;;;;;;75.90;13.57;;;;;;;;;;8341831;28;20109;-66
2022/01/13 13:24:36;;;;;;;180.95;14.68;;;;;;;;;;8340977;28;20397;-66
2022/01/13 13:28:47;;;;;;;59.55;14.15;;;;;;;;;;8342051;28;20118;-66
2022/01/13 13:32:48;;;;;;;294.83;17.45;;;;;;;;;;8345433;28;20700;-66
2022/01/13 13:36:50;;;;;;;68.97;16.50;;;;;;;;;;8346409;28;20493;-66
2022/01/13 13:40:50;;;;;;;213.80;18.35;;;;;;;;;;8339639;28;20112;-66
2022/01/13 13:44:51;;;;;;;242.48;20.55;;;;;;;;;;8342867;28;20158;-66
2022/01/13 13:48:51;;;;;;;55.70;19.95;;;;;;;;;;8340692;28;20032;-66
2022/01/13 13:53:04;;;;;;;176.98;19.08;;;;;;;;;;8338693;28;20016;-66
2022/01/13 13:57:05;;;;;;;44.97;16.67;;;;;;;;;;8338623;28;20032;-66
2022/01/13 14:01:06;;;;;;;33.97;17.33;;;;;;;;;;8339101;28;20119;-66
2022/01/13 14:05:10;;;;;;;44.25;18.95;;;;;;;;;;8339358;28;20283;-66
2022/01/13 14:09:10;;;;;;;;;;;;;;;;;;8342635;28;20039;-66
2022/01/13 14:13:11;;;;;;;38.22;18.98;;;;;;;;;;8338591;28;20133;-66
2022/01/13 14:17:11;;;;;;;36.85;18.92;;;;;;;;;;8340003;28;20041;-66
2022/01/13 14:21:11;;;;;;;42.55;19.15;;;;;;;;;;8340277;28;20370;-66
2022/01/13 14:25:12;;;;;;;41.25;18.70;;;;;;;;;;8339525;28;20738;-66
2022/01/13 14:29:20;;;;;;;38.67;19.48;;;;;;;;;;8340854;28;20029;-66
2022/01/13 14:33:32;;;;;;;52.28;20.60;;;;;;;;;;8337671;28;20103;-66
2022/01/13 14:37:32;;;;;;;45.33;20.08;;;;;;;;;;8341162;28;20615;-66
2022/01/13 14:41:40;;;;;;;38.58;19.13;;;;;;;;;;8338903;28;20467;-66
2022/01/13 14:45:40;;;;;;;35.92;18.15;;;;;;;;;;8338849;28;20126;-66
2022/01/13 14:49:40;;;;;;;34.25;17.10;;;;;;;;;;8341174;28;20032;-66
2022/01/13 14:53:41;;;;;;;29.23;15.45;;;;;;;;;;8339654;28;20635;-66
2022/01/13 14:57:42;;;;;;;29.83;15.88;;;;;;;;;;8339156;28;20033;-66
2022/01/13 15:01:45;;;;;;;29.42;15.73;;;;;;;;;;8331413;28;20043;-66
2022/01/13 15:05:46;;;;;;;29.45;15.60;;;;;;;;;;8335419;28;20035;-66
2022/01/13 15:09:48;;;;;;;25.60;14.27;;;;;;;;;;8340863;28;20060;-66
2022/01/13 15:13:50;;;;;;;25.73;13.68;;;;;;;;;;8341022;28;20140;-66
2022/01/13 15:17:50;;;;;;;26.48;14.48;;;;;;;;;;8339630;28;20041;-66
2022/01/13 15:21:51;;;;;;;30.58;14.88;;;;;;;;;;8339917;28;20028;-66
2022/01/13 15:25:51;;;;;;;29.23;15.18;;;;;;;;;;8340178;28;20037;-66
2022/01/13 15:29:51;;;;;;;26.90;14.32;;;;;;;;;;8339770;28;20382;-66
2022/01/13 15:33:51;;;;;;;31.83;15.60;;;;;;;;;;8337273;28;20043;-66
2022/01/13 15:37:52;;;;;;;31.23;15.32;;;;;;;;;;8339495;28;20573;-66
2022/01/13 15:41:53;;;;;;;26.75;13.38;;;;;;;;;;8340545;28;20058;-66
2022/01/13 15:45:53;;;;;;;26.63;13.57;;;;;;;;;;8337995;28;20033;-66
2022/01/13 15:49:53;;;;;;;29.30;14.55;;;;;;;;;;8338612;28;20028;-66
2022/01/13 15:53:54;;;;;;;30.95;15.90;;;;;;;;;;8339439;28;20035;-66
2022/01/13 15:57:54;;;;;;;44.13;21.43;;;;;;;;;;8338877;28;20154;-66
2022/01/13 16:01:54;;;;;;;48.47;22.45;;;;;;;;;;8338602;28;20260;-66
2022/01/13 16:05:54;;;;;;;93.25;23.20;;;;;;;;;;8338365;28;20033;-66
2022/01/13 16:09:54;;;;;;;166.23;23.65;;;;;;;;;;8338566;28;20021;-66
2022/01/13 16:13:57;;;;;;;53.28;21.10;;;;;;;;;;8340469;28;20065;-66
2022/01/13 16:17:57;;;;;;;116.63;21.48;;;;;;;;;;8339229;28;20033;-66
2022/01/13 16:21:57;;;;;;;156.15;20.65;;;;;;;;;;8338336;28;20340;-66
2022/01/13 16:25:58;;;;;;;85.68;19.38;;;;;;;;;;8337963;28;20028;-66
2022/01/13 16:29:59;;;;;;;104.15;19.83;;;;;;;;;;8339563;28;20021;-66
2022/01/13 16:33:59;;;;;;;164.52;19.27;;;;;;;;;;8336658;28;20037;-66
2022/01/13 16:38:00;;;;;;;125.33;17.77;;;;;;;;;;8337193;28;20021;-66
2022/01/13 16:42:02;;;;;;;72.03;17.05;;;;;;;;;;8338860;28;20313;-66
2022/01/13 16:46:03;;;;;;;75.60;16.17;;;;;;;;;;8344108;28;20144;-66
2022/01/13 16:50:05;;;;;;;70.18;17.63;;;;;;;;;;8344282;28;20328;-66
2022/01/13 16:54:05;;;;;;;53.95;17.58;;;;;;;;;;8343656;28;20028;-66
2022/01/13 16:58:05;;;;;;;65.00;27.17;;;;;;;;;;8345014;28;20032;-66
2022/01/13 17:02:06;;;;;;;55.03;24.67;;;;;;;;;;8345429;28;20076;-66
2022/01/13 17:06:06;;;;;;;43.15;19.77;;;;;;;;;;8341972;28;20067;-66
2022/01/13 17:10:06;;;;;;;35.33;17.88;;;;;;;;;;8344982;28;20032;-66
2022/01/13 17:14:07;;;;;;;36.90;17.52;;;;;;;;;;8341973;28;20067;-66
2022/01/13 17:18:07;;;;;;;31.65;15.48;;;;;;;;;;8342440;28;20954;-65
2022/01/13 17:22:07;;;;;;;33.95;14.65;;;;;;;;;;8345746;28;20028;-66
2022/01/13 17:26:07;;;;;;;30.90;14.23;;;;;;;;;;8343890;28;20107;-66
2022/01/13 17:30:09;;;;;;;31.67;13.10;;;;;;;;;;8342863;28;20043;-66
2022/01/13 17:34:09;;;;;;;24.83;11.63;;;;;;;;;;8342277;28;20330;-66
2022/01/13 17:38:09;;;;;;;21.50;9.70;;;;;;;;;;8342162;28;20505;-66
2022/01/13 17:42:10;;;;;;;28.17;8.30;;;;;;;;;;8343624;28;20056;-65
2022/01/13 17:46:10;;;;;;;18.52;9.00;;;;;;;;;;8342254;28;20071;-65
2022/01/13 17:50:11;;;;;;;22.83;10.43;;;;;;;;;;8342552;28;20082;-66
2022/01/13 17:54:11;;;;;;;19.90;8.93;;;;;;;;;;8343595;28;20074;-66
2022/01/13 17:58:13;;;;;;;17.17;7.75;;;;;;;;;;8340654;28;20062;-66
2022/01/13 18:02:14;;;;;;;16.83;8.50;;;;;;;;;;8340380;28;20457;-66
2022/01/13 18:06:15;;;;;;;13.82;6.68;;;;;;;;;;8340429;28;20037;-66
2022/01/13 18:10:15;;;;;;;13.00;6.25;;;;;;;;;;8339986;28;20675;-66
2022/01/13 18:14:16;;;;;;;11.02;5.60;;;;;;;;;;8341903;28;20334;-66
2022/01/13 18:18:17;;;;;;;8.60;4.03;;;;;;;;;;8341795;28;20032;-66
2022/01/13 18:22:18;;;;;;;7.15;2.80;;;;;;;;;;8343635;28;21452;-65
2022/01/13 18:26:19;;;;;;;4.82;2.15;;;;;;;;;;8341325;28;20098;-66
2022/01/13 18:30:19;;;;;;;5.70;1.83;;;;;;;;;;8341506;28;20028;-66
2022/01/13 18:34:19;;;;;;;4.57;1.70;;;;;;;;;;8339815;28;20029;-66
2022/01/13 18:38:19;;;;;;;4.50;2.10;;;;;;;;;;8335489;28;20037;-65
2022/01/13 18:42:20;;;;;;;1.27;1.10;;;;;;;;;;8341855;28;20055;-65
2022/01/13 18:46:22;;;;;;;4.43;2.50;;;;;;;;;;8343338;28;20278;-65
2022/01/13 18:50:22;;;;;;;6.75;3.00;;;;;;;;;;8344252;28;20021;-65
2022/01/13 18:54:22;;;;;;;8.35;4.47;;;;;;;;;;8340178;28;20035;-66
2022/01/13 18:58:22;;;;;;;7.00;3.67;;;;;;;;;;8340612;28;20028;-72
2022/01/13 19:02:23;;;;;;;9.63;4.07;;;;;;;;;;8340309;28;20044;-65
2022/01/13 19:06:23;;;;;;;7.07;4.77;;;;;;;;;;8336874;28;20105;-65
2022/01/13 19:10:23;;;;;;;10.88;5.22;;;;;;;;;;8338371;28;20278;-65
2022/01/13 19:14:24;;;;;;;13.82;6.40;;;;;;;;;;8341294;28;20028;-65
2022/01/13 19:18:36;;;;;;;20.10;10.30;;;;;;;;;;8337297;28;20045;-65
2022/01/13 19:22:36;;;;;;;30.42;14.60;;;;;;;;;;8337977;28;20039;-65
2022/01/13 19:26:36;;;;;;;33.17;14.75;;;;;;;;;;8338854;28;20966;-65
2022/01/13 19:30:40;;;;;;;25.38;12.20;;;;;;;;;;8338355;28;20051;-66
2022/01/13 19:34:40;;;;;;;23.07;11.70;;;;;;;;;;8339078;28;21037;-65
2022/01/13 19:38:40;;;;;;;20.70;10.18;;;;;;;;;;8339437;28;20024;-65
2022/01/13 19:42:41;;;;;;;20.05;9.77;;;;;;;;;;8339757;28;20456;-65
2022/01/13 19:46:41;;;;;;;17.52;6.45;;;;;;;;;;8339474;28;20095;-65
2022/01/13 19:50:42;;;;;;;10.25;5.43;;;;;;;;;;8339884;28;20028;-65
2022/01/13 19:54:42;;;;;;;9.80;4.40;;;;;;;;;;8339121;28;20032;-66
2022/01/13 19:58:42;;;;;;;12.77;5.00;;;;;;;;;;8335623;28;20061;-65
2022/01/13 20:02:42;;;;;;;6.97;3.92;;;;;;;;;;8338848;28;20989;-65
2022/01/13 20:06:43;;;;;;;8.73;3.88;;;;;;;;;;8337290;28;20032;-65
2022/01/13 20:10:43;;;;;;;10.20;3.88;;;;;;;;;;8339233;28;20350;-65
2022/01/13 20:14:43;;;;;;;10.25;4.65;;;;;;;;;;8339223;28;20031;-65
2022/01/13 20:18:46;;;;;;;10.23;4.63;;;;;;;;;;8341517;28;20040;-65
2022/01/13 20:22:47;;;;;;;7.55;4.30;;;;;;;;;;8349784;28;20032;-65
2022/01/13 20:26:47;;;;;;;9.35;3.53;;;;;;;;;;8350689;28;20481;-65
2022/01/13 20:30:47;;;;;;;6.97;3.60;;;;;;;;;;8349710;28;20094;-65
2022/01/13 20:34:48;;;;;;;5.88;3.10;;;;;;;;;;8348238;28;20430;-65
2022/01/13 20:38:48;;;;;;;5.82;2.92;;;;;;;;;;8349248;28;20387;-65
2022/01/13 20:42:50;;;;;;;4.28;2.10;;;;;;;;;;8349830;28;20017;-65
2022/01/13 20:46:51;;;;;;;3.28;1.42;;;;;;;;;;8348879;28;20033;-65
2022/01/13 20:50:51;;;;;;;3.78;1.30;;;;;;;;;;8345529;28;20024;-65
2022/01/13 20:54:52;;;;;;;5.13;1.40;;;;;;;;;;8345595;28;20025;-65
2022/01/13 20:58:53;;;;;;;5.72;1.63;;;;;;;;;;8349613;28;20091;-66
2022/01/13 21:02:54;;;;;;;2.03;0.80;;;;;;;;;;8348069;28;20159;-65
2022/01/13 21:06:55;;;;;;;6.30;1.70;;;;;;;;;;8349000;28;20021;-65
2022/01/13 21:10:56;;;;;;;4.13;1.60;;;;;;;;;;8348781;28;20806;-65
2022/01/13 21:14:56;;;;;;;3.38;1.38;;;;;;;;;;8348113;28;20044;-65
2022/01/13 21:18:57;;;;;;;3.08;1.33;;;;;;;;;;8348750;28;20041;-65
2022/01/13 21:22:57;;;;;;;4.22;1.50;;;;;;;;;;8348677;28;20190;-65
2022/01/13 21:26:58;;;;;;;4.28;1.80;;;;;;;;;;8345948;28;20033;-65
2022/01/13 21:30:58;;;;;;;5.10;1.70;;;;;;;;;;8345528;28;20071;-65
2022/01/13 21:34:59;;;;;;;2.28;1.58;;;;;;;;;;8343321;28;20094;-65
2022/01/13 21:38:59;;;;;;;3.17;1.50;;;;;;;;;;8342696;28;20025;-65
2022/01/13 21:42:59;;;;;;;4.85;2.42;;;;;;;;;;8341984;28;20020;-65
2022/01/13 21:46:59;;;;;;;3.45;1.65;;;;;;;;;;8343438;28;20902;-65
2022/01/13 21:50:59;;;;;;;4.88;1.77;;;;;;;;;;8341794;28;20025;-65
2022/01/13 21:55:00;;;;;;;5.65;1.38;;;;;;;;;;8341339;28;20063;-65
2022/01/13 21:59:00;;;;;;;4.87;1.37;;;;;;;;;;8343267;28;20031;-65
2022/01/13 22:03:07;;;;;;;5.10;1.25;;;;;;;;;;8340756;28;21073;-65
2022/01/13 22:07:07;;;;;;;4.47;1.02;;;;;;;;;;8341108;28;20036;-65
2022/01/13 22:11:07;;;;;;;5.60;1.30;;;;;;;;;;8343136;28;20039;-65
2022/01/13 22:15:08;;;;;;;2.47;1.10;;;;;;;;;;8340617;28;20037;-65
2022/01/13 22:19:10;;;;;;;2.25;1.30;;;;;;;;;;8341737;28;20295;-65
2022/01/13 22:23:10;;;;;;;2.17;0.98;;;;;;;;;;8342535;28;20017;-65
2022/01/13 22:27:11;;;;;;;4.72;1.10;;;;;;;;;;8340413;28;20040;-65
2022/01/13 22:31:11;;;;;;;2.78;1.10;;;;;;;;;;8340226;28;20044;-65
2022/01/13 22:35:11;;;;;;;4.18;0.82;;;;;;;;;;8341411;28;20032;-65
2022/01/13 22:39:12;;;;;;;3.35;1.23;;;;;;;;;;8340955;28;20028;-65
2022/01/13 22:43:12;;;;;;;3.38;0.82;;;;;;;;;;8343053;28;20021;-65
2022/01/13 22:47:13;;;;;;;1.52;0.90;;;;;;;;;;8339559;28;20040;-65
2022/01/13 22:51:13;;;;;;;5.85;1.10;;;;;;;;;;8341413;28;20152;-65
2022/01/13 22:55:13;;;;;;;3.67;1.30;;;;;;;;;;8338593;28;20033;-65
2022/01/13 22:59:14;;;;;;;4.50;1.50;;;;;;;;;;8341263;28;20063;-65
2022/01/13 23:03:15;;;;;;;3.22;1.00;;;;;;;;;;8338549;28;20405;-65
2022/01/13 23:07:16;;;;;;;2.67;1.23;;;;;;;;;;8339463;28;20025;-65
2022/01/13 23:11:18;;;;;;;2.35;1.13;;;;;;;;;;8341298;28;20076;-65
2022/01/13 23:23:37;;;;;;;3.70;1.20;;;;;;;;;;8340832;28;20085;-65
2022/01/13 23:27:37;;;;;;;2.75;1.10;;;;;;;;;;8338320;28;20029;-64
2022/01/13 23:31:38;;;;;;;4.97;1.23;;;;;;;;;;8338857;28;20125;-64
2022/01/13 23:35:38;;;;;;;2.05;1.20;;;;;;;;;;8340346;28;20120;-64
2022/01/13 23:39:38;;;;;;;5.47;1.50;;;;;;;;;;8340566;28;21008;-64
2022/01/13 23:43:40;;;;;;;3.33;1.92;;;;;;;;;;8336793;28;20063;-64
2022/01/13 23:47:40;;;;;;;4.55;1.98;;;;;;;;;;8339390;28;20949;-65
2022/01/13 23:51:40;;;;;;;5.13;2.28;;;;;;;;;;8341087;28;20025;-64
2022/01/13 23:55:40;;;;;;;9.93;2.33;;;;;;;;;;8342858;28;20040;-64
2022/01/13 23:59:41;;;;;;;6.25;2.40;;;;;;;;;;8341355;28;20028;-64
